Time;durP1;ratioP1;P1;durP2;ratioP2;P2;SDS_P1;SDS_P2;PMS_P1;PMS_P2;Temp;Humidity;BMP_temperature;BMP_pressure;BME280_temperature;BME280_humidity;BME280_pressure;Samples;Min_cycle;Max_cycle;Signal;HPM_P1;HPM_P2
2023/01/21 00:01:59;;;;;;;9.48;5.70;;;-0.30;99.90;;;;;;5163227;28;20022;-59
2023/01/21 00:04:33;;;;;;;8.75;4.82;;;-0.30;99.90;;;;;;5154375;28;20038;-58
2023/01/21 00:07:07;;;;;;;;;;;-0.30;99.90;;;;;;5179142;28;20032;-58
2023/01/21 00:09:38;;;;;;;9.40;5.43;;;-0.30;99.90;;;;;;5162234;28;20070;-58
2023/01/21 00:12:09;;;;;;;11.18;6.53;;;-0.30;99.90;;;;;;5177330;28;20038;-58
2023/01/21 00:14:42;;;;;;;9.70;5.47;;;-0.30;99.90;;;;;;5177507;28;20233;-58
2023/01/21 00:17:14;;;;;;;13.15;5.82;;;-0.30;99.90;;;;;;5161547;28;20030;-58
2023/01/21 00:19:48;;;;;;;9.70;6.18;;;-0.30;99.90;;;;;;5145837;28;20279;-58
2023/01/21 00:22:19;;;;;;;10.07;5.25;;;-0.20;99.90;;;;;;5176935;28;20034;-58
2023/01/21 00:24:51;;;;;;;11.88;6.50;;;-0.20;99.90;;;;;;5161041;28;20214;-58
2023/01/21 00:27:22;;;;;;;11.10;6.28;;;-0.20;99.90;;;;;;5178588;28;20026;-59
2023/01/21 00:29:59;;;;;;;11.70;6.25;;;-0.30;99.90;;;;;;5161495;28;20030;-58
2023/01/21 00:32:36;;;;;;;10.43;6.90;;;-0.20;99.90;;;;;;5145002;28;20030;-58
2023/01/21 00:35:08;;;;;;;10.40;6.78;;;-0.20;99.90;;;;;;5177646;28;20052;-58
2023/01/21 00:37:39;;;;;;;13.57;7.32;;;-0.30;99.90;;;;;;5161437;28;20034;-58
2023/01/21 00:40:13;;;;;;;17.77;7.20;;;-0.30;99.90;;;;;;5177299;28;20034;-58
2023/01/21 00:42:47;;;;;;;11.63;6.75;;;-0.30;99.90;;;;;;5176731;28;20037;-57
2023/01/21 00:45:19;;;;;;;;;;;-0.30;99.90;;;;;;5160921;28;20038;-58
2023/01/21 00:47:50;;;;;;;9.70;5.57;;;-0.30;99.90;;;;;;5177650;28;19970;-57
2023/01/21 00:50:22;;;;;;;12.57;7.05;;;-0.40;99.90;;;;;;5177053;28;20168;-57
2023/01/21 00:52:56;;;;;;;11.98;7.05;;;-0.40;99.90;;;;;;5160629;28;20030;-58
2023/01/21 00:59:13;;;;;;;10.15;5.22;;;-0.40;99.90;;;;;;5177740;28;20014;-57
2023/01/21 01:01:47;;;;;;;15.18;8.13;;;-0.40;99.90;;;;;;5238893;23;20051;-63
2023/01/21 01:04:23;;;;;;;9.93;5.53;;;-0.40;99.90;;;;;;5097742;28;20049;-65
2023/01/21 01:06:57;;;;;;;16.33;6.05;;;-0.40;99.90;;;;;;5085662;29;20039;-60
2023/01/21 01:09:28;;;;;;;12.68;8.05;;;-0.40;99.90;;;;;;5091112;29;20038;-61
2023/01/21 01:12:05;;;;;;;10.15;6.32;;;-0.50;99.90;;;;;;5090013;29;20050;-62
2023/01/21 01:14:36;;;;;;;11.02;7.15;;;-0.50;99.90;;;;;;5088272;29;20047;-63
2023/01/21 01:17:10;;;;;;;16.27;7.85;;;-0.50;99.90;;;;;;5088064;29;20024;-60
2023/01/21 01:19:41;;;;;;;11.85;7.45;;;-0.50;99.90;;;;;;5090356;29;20340;-61
2023/01/21 01:22:21;;;;;;;13.70;6.38;;;-0.50;99.90;;;;;;5091146;29;20484;-60
2023/01/21 01:24:55;;;;;;;11.68;6.85;;;-0.50;99.90;;;;;;5072480;29;20347;-61
2023/01/21 01:27:29;;;;;;;14.98;7.95;;;-0.50;99.90;;;;;;5073750;29;20050;-61
2023/01/21 01:30:08;;;;;;;14.68;6.28;;;-0.50;99.90;;;;;;5073908;29;20552;-62
2023/01/21 01:32:42;;;;;;;15.88;6.93;;;-0.50;99.90;;;;;;5072715;29;20032;-62
2023/01/21 01:35:19;;;;;;;12.77;6.32;;;-0.50;99.90;;;;;;5090863;29;20035;-61
2023/01/21 01:37:53;;;;;;;13.85;5.95;;;-0.50;99.90;;;;;;5073703;29;20039;-61
2023/01/21 01:40:27;;;;;;;12.30;6.38;;;-0.40;99.90;;;;;;5076920;29;20046;-60
2023/01/21 01:43:01;;;;;;;15.95;8.45;;;-0.40;99.90;;;;;;5073937;29;20042;-61
2023/01/21 01:45:38;;;;;;;15.88;7.93;;;-0.40;99.90;;;;;;5073701;29;20232;-63
2023/01/21 01:48:17;;;;;;;14.32;9.20;;;-0.40;99.90;;;;;;5073504;29;20049;-61
2023/01/21 01:50:51;;;;;;;12.73;7.68;;;-0.40;99.90;;;;;;5056691;29;20032;-60
2023/01/21 01:53:26;;;;;;;13.40;7.60;;;-0.40;99.90;;;;;;5089795;29;20359;-61
2023/01/21 01:56:03;;;;;;;14.13;7.30;;;-0.40;99.90;;;;;;5073696;29;20031;-60
2023/01/21 01:58:35;;;;;;;20.33;10.18;;;-0.40;99.90;;;;;;5104231;28;20332;-60
2023/01/21 02:01:08;;;;;;;15.00;7.70;;;-0.30;99.90;;;;;;5077404;29;20050;-60
2023/01/21 02:03:49;;;;;;;18.70;7.72;;;-0.30;99.90;;;;;;5086161;29;20050;-61
2023/01/21 02:06:26;;;;;;;15.98;7.95;;;-0.30;99.90;;;;;;5094265;29;20058;-61
2023/01/21 02:08:57;;;;;;;13.77;7.30;;;-0.30;99.90;;;;;;5072365;29;20043;-61
2023/01/21 02:11:28;;;;;;;18.00;8.25;;;-0.30;99.90;;;;;;5084923;29;20032;-61
2023/01/21 02:14:00;;;;;;;11.25;5.72;;;-0.30;99.90;;;;;;5052007;29;20049;-60
2023/01/21 02:16:56;;;;;;;10.60;6.38;;;-0.20;99.90;;;;;;5056172;29;20038;-61
2023/01/21 02:19:48;;;;;;;12.55;6.13;;;-0.30;99.90;;;;;;5071519;29;20028;-60
2023/01/21 02:22:38;;;;;;;13.63;6.05;;;-0.30;99.90;;;;;;5086677;29;20028;-61
2023/01/21 02:25:30;;;;;;;10.32;6.47;;;-0.30;99.90;;;;;;5109413;28;20049;-61
2023/01/21 02:28:07;;;;;;;10.82;5.80;;;-0.30;99.90;;;;;;5092183;29;20031;-62
2023/01/21 02:31:03;;;;;;;10.85;6.18;;;-0.20;99.90;;;;;;5091059;29;20589;-61
2023/01/21 02:34:17;;;;;;;10.63;5.85;;;-0.20;99.90;;;;;;5078706;29;20028;-62
2023/01/21 02:37:01;;;;;;;12.48;7.10;;;-0.30;99.90;;;;;;5081341;29;20046;-61
2023/01/21 02:39:35;;;;;;;;;;;-0.20;99.90;;;;;;5069731;29;20035;-60
2023/01/21 02:42:17;;;;;;;19.87;6.00;;;-0.30;99.90;;;;;;5107872;29;19921;-61
2023/01/21 02:45:03;;;;;;;12.85;6.47;;;-0.30;99.90;;;;;;5107930;28;20039;-61
2023/01/21 02:47:45;;;;;;;11.55;5.93;;;-0.30;99.90;;;;;;5091124;29;20415;-61
2023/01/21 02:50:27;;;;;;;9.45;5.22;;;-0.40;99.90;;;;;;5092624;28;20077;-60
2023/01/21 02:53:00;;;;;;;12.43;5.93;;;-0.40;99.90;;;;;;5070129;29;20070;-61
2023/01/21 02:55:39;;;;;;;11.53;5.03;;;-0.40;99.90;;;;;;5089413;29;20590;-61
2023/01/21 02:58:26;;;;;;;12.13;5.88;;;-0.40;99.90;;;;;;5096241;29;20588;-62
2023/01/21 03:01:34;;;;;;;9.48;5.10;;;-0.40;99.90;;;;;;5071914;29;20041;-60
2023/01/21 03:04:11;;;;;;;9.23;4.00;;;-0.40;99.90;;;;;;5091188;29;20445;-61
2023/01/21 03:06:48;;;;;;;10.00;5.50;;;-0.40;99.90;;;;;;5081460;29;20043;-61
2023/01/21 03:09:29;;;;;;;10.07;5.18;;;-0.40;99.90;;;;;;5106767;29;20374;-63
2023/01/21 03:12:14;;;;;;;7.75;5.63;;;-0.40;99.90;;;;;;5076913;29;20035;-60
2023/01/21 03:18:17;;;;;;;9.95;5.75;;;-0.40;99.90;;;;;;5076366;29;20605;-60
2023/01/21 03:21:09;;;;;;;8.38;4.70;;;-0.40;99.90;;;;;;5074736;29;20039;-62
2023/01/21 03:23:46;;;;;;;12.45;5.65;;;-0.30;99.90;;;;;;5074858;29;20507;-60
2023/01/21 03:26:33;;;;;;;12.27;5.57;;;-0.30;99.90;;;;;;5092393;29;20031;-61
2023/01/21 03:29:10;;;;;;;18.10;6.85;;;-0.30;99.90;;;;;;5058912;29;20044;-60
2023/01/21 03:31:46;;;;;;;9.07;5.22;;;-0.30;99.90;;;;;;5061658;29;20333;-61
2023/01/21 03:34:22;;;;;;;8.20;5.10;;;-0.20;99.90;;;;;;5077694;29;20479;-61
2023/01/21 03:37:09;;;;;;;9.95;6.03;;;-0.20;99.90;;;;;;5075040;29;20035;-61
2023/01/21 03:39:52;;;;;;;9.02;5.25;;;-0.20;99.90;;;;;;5072957;29;20235;-61
2023/01/21 03:42:29;;;;;;;9.65;5.25;;;-0.20;99.90;;;;;;5074337;29;20043;-61
2023/01/21 03:45:00;;;;;;;9.53;5.83;;;-0.10;99.90;;;;;;5074034;29;20043;-62
2023/01/21 03:47:40;;;;;;;7.10;4.43;;;-0.10;99.90;;;;;;5090865;29;20031;-62
2023/01/21 03:50:21;;;;;;;8.90;5.07;;;-0.10;99.90;;;;;;5085465;29;20036;-59
2023/01/21 03:53:16;;;;;;;5.05;3.60;;;-0.10;99.90;;;;;;5105689;28;20026;-60
2023/01/21 03:55:52;;;;;;;8.80;5.28;;;-0.10;99.90;;;;;;5079737;29;20040;-62
2023/01/21 03:58:28;;;;;;;6.78;3.53;;;-0.10;99.90;;;;;;5082718;29;20043;-61
2023/01/21 04:00:59;;;;;;;7.32;4.07;;;0.00;99.90;;;;;;5092005;29;20398;-61
2023/01/21 04:03:33;;;;;;;7.75;4.30;;;0.00;99.90;;;;;;5077097;29;20046;-62
2023/01/21 04:06:18;;;;;;;9.20;4.20;;;0.00;99.90;;;;;;5096121;29;20052;-63
2023/01/21 04:08:50;;;;;;;;;;;0.00;99.90;;;;;;5089511;29;20250;-61
2023/01/21 04:11:21;;;;;;;11.35;5.07;;;0.00;99.90;;;;;;5091003;29;19929;-62
2023/01/21 04:13:55;;;;;;;12.15;5.10;;;-0.10;99.90;;;;;;5054258;29;20050;-60
2023/01/21 04:16:26;;;;;;;8.60;4.60;;;-0.10;99.90;;;;;;5054993;29;20028;-61
2023/01/21 04:19:00;;;;;;;8.20;5.05;;;0.00;99.90;;;;;;5095574;29;20031;-60
2023/01/21 04:21:33;;;;;;;9.80;5.45;;;0.00;99.90;;;;;;5077053;29;20062;-62
2023/01/21 04:24:06;;;;;;;10.50;5.78;;;0.00;99.90;;;;;;5091768;29;20042;-62
2023/01/21 04:26:40;;;;;;;7.40;4.70;;;0.00;99.90;;;;;;5105056;29;20038;-60
2023/01/21 04:29:16;;;;;;;9.82;5.85;;;0.00;99.90;;;;;;5103081;28;20483;-61
2023/01/21 04:31:49;;;;;;;8.85;5.03;;;0.10;99.90;;;;;;5093263;29;20035;-62
2023/01/21 04:34:20;;;;;;;9.80;5.27;;;0.10;99.90;;;;;;5058644;29;20046;-60
2023/01/21 04:36:52;;;;;;;8.43;5.60;;;0.10;99.90;;;;;;5088948;29;20043;-61
2023/01/21 04:39:25;;;;;;;6.75;4.90;;;0.10;99.90;;;;;;5086850;29;20443;-62
2023/01/21 04:41:56;;;;;;;7.05;4.43;;;0.10;99.90;;;;;;5079296;29;20039;-61
2023/01/21 04:44:27;;;;;;;8.15;4.53;;;0.10;99.90;;;;;;5109688;28;20033;-60
2023/01/21 04:47:01;;;;;;;6.43;4.10;;;0.10;99.90;;;;;;5108670;29;20230;-60
2023/01/21 04:49:32;;;;;;;9.87;5.37;;;0.10;99.90;;;;;;5077427;29;20282;-61
2023/01/21 04:52:06;;;;;;;7.30;4.35;;;0.10;99.90;;;;;;5073696;29;20268;-62
2023/01/21 04:54:37;;;;;;;8.55;4.93;;;0.20;99.90;;;;;;5056878;29;20644;-62
2023/01/21 04:57:09;;;;;;;6.97;5.00;;;0.10;99.90;;;;;;5072260;29;20586;-60
2023/01/21 04:59:40;;;;;;;5.88;4.15;;;0.10;99.90;;;;;;5088787;29;20320;-60
2023/01/21 05:02:11;;;;;;;6.03;4.10;;;0.10;99.90;;;;;;5077485;29;20041;-61
2023/01/21 05:04:43;;;;;;;7.78;4.60;;;0.20;99.90;;;;;;5082533;29;20062;-61
2023/01/21 05:07:19;;;;;;;8.13;4.47;;;0.20;99.90;;;;;;5099601;28;20024;-61
2023/01/21 05:09:50;;;;;;;8.50;4.38;;;0.20;99.90;;;;;;5087358;29;20050;-60
2023/01/21 05:12:22;;;;;;;8.93;5.35;;;0.20;99.90;;;;;;5072511;29;20419;-61
2023/01/21 05:14:56;;;;;;;6.28;3.80;;;0.20;99.90;;;;;;5089875;29;20475;-61
2023/01/21 05:17:30;;;;;;;6.97;3.35;;;0.20;99.90;;;;;;5088613;29;20039;-61
2023/01/21 05:20:02;;;;;;;8.25;4.22;;;0.20;99.90;;;;;;5057018;29;20040;-62
2023/01/21 05:22:33;;;;;;;6.40;3.55;;;0.10;99.90;;;;;;5072816;29;20034;-61
2023/01/21 05:25:05;;;;;;;6.88;4.20;;;0.20;99.90;;;;;;5088965;29;20045;-63
2023/01/21 05:27:36;;;;;;;7.68;4.57;;;0.20;99.90;;;;;;5057269;29;20038;-61
2023/01/21 05:30:08;;;;;;;7.03;4.13;;;0.10;99.90;;;;;;5056205;29;20244;-59
2023/01/21 05:32:40;;;;;;;9.32;4.82;;;0.20;99.90;;;;;;5055204;29;20433;-62
2023/01/21 05:35:17;;;;;;;9.13;4.80;;;0.10;99.90;;;;;;5105908;29;20281;-62
2023/01/21 05:37:49;;;;;;;6.57;3.88;;;0.10;99.90;;;;;;5089063;29;20032;-62
2023/01/21 05:40:24;;;;;;;6.53;4.32;;;0.10;99.90;;;;;;5088194;29;20044;-62
2023/01/21 05:42:55;;;;;;;8.43;4.50;;;0.10;99.90;;;;;;5073153;29;20580;-62
2023/01/21 05:45:26;;;;;;;7.50;4.00;;;0.10;99.90;;;;;;5086560;29;20031;-61
2023/01/21 05:48:00;;;;;;;6.90;4.10;;;0.10;99.90;;;;;;5040453;29;20487;-61
2023/01/21 05:50:33;;;;;;;7.28;3.92;;;0.20;99.90;;;;;;5073780;29;20038;-62
2023/01/21 05:53:05;;;;;;;5.93;3.63;;;0.20;99.90;;;;;;5103975;29;20051;-60
2023/01/21 05:55:37;;;;;;;7.25;4.00;;;0.20;99.90;;;;;;5072626;29;20062;-61
2023/01/21 05:58:14;;;;;;;6.55;3.75;;;0.20;99.90;;;;;;5056374;29;20042;-62
2023/01/21 06:00:47;;;;;;;6.13;3.78;;;0.20;99.90;;;;;;5071924;29;20047;-64
2023/01/21 06:03:18;;;;;;;5.95;4.05;;;0.10;99.90;;;;;;5087191;29;20067;-64
2023/01/21 06:05:50;;;;;;;7.05;4.32;;;0.10;99.90;;;;;;5076008;29;20063;-62
2023/01/21 06:08:24;;;;;;;7.88;3.75;;;0.10;99.90;;;;;;5056231;29;20042;-60
2023/01/21 06:10:55;;;;;;;9.10;3.87;;;0.10;99.90;;;;;;5103948;29;20068;-62
2023/01/21 06:13:26;;;;;;;5.80;3.88;;;0.10;99.90;;;;;;5089835;29;20262;-62
2023/01/21 06:15:58;;;;;;;6.47;3.30;;;0.10;99.90;;;;;;5090960;29;20051;-63
2023/01/21 06:18:32;;;;;;;7.78;4.32;;;0.10;99.90;;;;;;5059877;29;20031;-61
2023/01/21 06:21:03;;;;;;;9.35;4.25;;;0.10;99.90;;;;;;5072438;29;20046;-61
2023/01/21 06:23:38;;;;;;;4.40;2.95;;;0.10;99.90;;;;;;5078973;29;20031;-62
2023/01/21 06:26:09;;;;;;;6.40;3.70;;;0.10;99.90;;;;;;5070774;29;20045;-62
2023/01/21 06:28:43;;;;;;;7.25;3.17;;;0.10;99.90;;;;;;5120365;28;20027;-62
2023/01/21 06:31:14;;;;;;;4.13;2.90;;;0.10;99.90;;;;;;5095756;29;20571;-63
2023/01/21 06:33:48;;;;;;;4.50;2.47;;;0.10;99.90;;;;;;5082570;29;20039;-63
2023/01/21 06:36:19;;;;;;;6.18;3.30;;;0.10;99.90;;;;;;5090888;29;20040;-62
2023/01/21 06:38:55;;;;;;;8.32;4.18;;;0.10;99.90;;;;;;5085416;29;20038;-62
2023/01/21 06:41:29;;;;;;;6.30;3.63;;;0.10;99.90;;;;;;5078837;29;20047;-62
2023/01/21 06:44:04;;;;;;;6.00;2.78;;;0.10;99.90;;;;;;5090443;29;20031;-62
2023/01/21 06:46:36;;;;;;;5.93;3.67;;;0.10;99.90;;;;;;5088593;29;20642;-61
2023/01/21 06:49:09;;;;;;;6.45;3.38;;;0.10;99.90;;;;;;5094111;29;20098;-61
2023/01/21 06:51:47;;;;;;;6.72;3.75;;;0.10;99.90;;;;;;5078175;29;20039;-63
2023/01/21 06:54:27;;;;;;;5.72;3.40;;;0.10;99.90;;;;;;5086432;29;20495;-62
2023/01/21 06:57:08;;;;;;;4.78;3.50;;;0.10;99.90;;;;;;5105894;28;20040;-61
2023/01/21 06:59:40;;;;;;;4.95;3.35;;;0.10;99.90;;;;;;5081980;29;20421;-61
2023/01/21 07:02:15;;;;;;;5.45;3.45;;;0.00;99.90;;;;;;5087609;28;20046;-61
2023/01/21 07:04:49;;;;;;;4.03;2.40;;;0.00;99.90;;;;;;5080278;29;20055;-62
2023/01/21 07:07:20;;;;;;;;;;;0.00;99.90;;;;;;5060324;29;20552;-62
2023/01/21 07:09:52;;;;;;;6.72;3.58;;;-0.10;99.90;;;;;;5089039;29;20356;-61
2023/01/21 07:12:29;;;;;;;6.32;4.35;;;-0.10;99.90;;;;;;5102224;28;20042;-61
2023/01/21 07:15:00;;;;;;;7.30;4.13;;;-0.10;99.90;;;;;;5057852;29;20026;-62
2023/01/21 07:17:34;;;;;;;6.28;3.50;;;-0.10;99.90;;;;;;5079167;29;20069;-62
2023/01/21 07:20:11;;;;;;;12.35;3.10;;;-0.10;99.90;;;;;;5084982;29;20036;-62
2023/01/21 07:22:43;;;;;;;7.50;3.55;;;0.00;99.90;;;;;;5088967;29;20035;-60
2023/01/21 07:25:15;;;;;;;4.95;3.40;;;0.00;99.90;;;;;;5074085;29;20035;-61
2023/01/21 07:27:47;;;;;;;5.93;3.63;;;0.00;99.90;;;;;;5073770;29;20042;-61
2023/01/21 07:30:19;;;;;;;5.70;3.50;;;-0.10;99.90;;;;;;5091660;29;20024;-61
2023/01/21 07:32:53;;;;;;;6.78;4.10;;;-0.10;99.90;;;;;;5060204;29;20032;-61
2023/01/21 07:35:24;;;;;;;11.10;4.68;;;-0.10;99.90;;;;;;5056985;29;20602;-60
2023/01/21 07:37:55;;;;;;;5.78;3.65;;;0.00;99.90;;;;;;5055542;29;20497;-61
2023/01/21 07:40:27;;;;;;;6.35;3.55;;;-0.10;99.90;;;;;;5082060;29;20053;-62
2023/01/21 07:42:58;;;;;;;9.95;3.50;;;-0.10;99.90;;;;;;5079860;29;20491;-60
2023/01/21 07:45:30;;;;;;;5.40;3.33;;;-0.10;99.90;;;;;;5057430;29;20418;-60
2023/01/21 07:48:01;;;;;;;9.93;3.80;;;-0.10;99.90;;;;;;5089332;29;20051;-61
2023/01/21 07:50:33;;;;;;;6.63;3.33;;;-0.10;99.90;;;;;;5092328;29;20032;-62
2023/01/21 07:53:05;;;;;;;8.50;3.92;;;0.00;99.90;;;;;;5085091;29;20037;-60
2023/01/21 07:55:38;;;;;;;4.43;3.10;;;0.10;99.90;;;;;;5089531;29;20027;-61
2023/01/21 07:58:09;;;;;;;6.80;3.83;;;0.10;99.90;;;;;;5056693;29;20044;-60
2023/01/21 08:00:40;;;;;;;5.68;4.07;;;0.20;99.90;;;;;;5072855;29;20047;-59
2023/01/21 08:03:12;;;;;;;11.75;2.88;;;0.10;99.90;;;;;;5071191;29;20063;-62
2023/01/21 08:05:45;;;;;;;8.18;3.25;;;0.10;99.90;;;;;;5079110;29;20063;-61
2023/01/21 08:08:17;;;;;;;6.50;3.55;;;0.20;99.90;;;;;;5104259;29;20031;-60
2023/01/21 08:10:58;;;;;;;5.47;3.03;;;0.20;99.90;;;;;;5055281;29;20082;-62
2023/01/21 08:13:34;;;;;;;5.65;3.05;;;0.20;99.90;;;;;;5072572;29;20037;-61
2023/01/21 08:16:06;;;;;;;6.90;3.72;;;0.20;99.90;;;;;;5072919;29;20550;-62
2023/01/21 08:18:37;;;;;;;6.07;3.00;;;0.20;99.90;;;;;;5108459;29;20042;-61
2023/01/21 08:21:09;;;;;;;3.70;2.55;;;0.20;99.90;;;;;;5093461;29;20039;-62
2023/01/21 08:23:40;;;;;;;7.20;3.75;;;0.20;99.90;;;;;;5090539;29;20031;-62
2023/01/21 08:26:11;;;;;;;7.25;3.42;;;0.20;99.90;;;;;;5096181;28;20428;-62
2023/01/21 08:28:46;;;;;;;9.35;3.13;;;0.10;99.90;;;;;;5103459;29;20024;-61
2023/01/21 08:31:17;;;;;;;9.18;4.25;;;0.20;99.90;;;;;;5071160;29;20054;-63
2023/01/21 08:33:54;;;;;;;5.47;3.25;;;0.10;99.90;;;;;;5090019;29;20035;-63
2023/01/21 08:36:29;;;;;;;5.75;3.63;;;0.10;99.90;;;;;;5097432;28;20511;-62
2023/01/21 08:39:00;;;;;;;6.78;3.90;;;0.10;99.90;;;;;;5088072;29;20047;-62
2023/01/21 08:41:35;;;;;;;5.50;2.83;;;0.00;99.90;;;;;;5073044;29;20031;-62
2023/01/21 08:44:06;;;;;;;4.10;2.88;;;0.10;99.90;;;;;;5049643;29;20061;-61
2023/01/21 08:46:38;;;;;;;4.43;3.33;;;0.00;99.90;;;;;;5092299;29;20033;-62
2023/01/21 08:49:12;;;;;;;5.78;3.03;;;0.00;99.90;;;;;;5060389;29;20630;-62
2023/01/21 08:51:43;;;;;;;7.75;3.38;;;0.00;99.90;;;;;;5095089;29;20031;-62
2023/01/21 08:54:20;;;;;;;6.10;2.85;;;0.00;99.90;;;;;;5087395;29;20036;-61
2023/01/21 08:56:51;;;;;;;6.25;3.80;;;0.00;99.90;;;;;;5071431;29;20239;-62
2023/01/21 08:59:30;;;;;;;5.82;3.38;;;0.00;99.90;;;;;;5098951;28;20314;-62
2023/01/21 09:02:07;;;;;;;5.03;3.55;;;0.00;99.90;;;;;;5079177;29;20039;-63
2023/01/21 09:04:38;;;;;;;7.22;3.67;;;0.00;99.90;;;;;;5081830;28;20043;-64
2023/01/21 09:07:09;;;;;;;6.80;2.97;;;0.00;99.90;;;;;;5100745;28;20040;-63
2023/01/21 09:09:40;;;;;;;6.43;3.50;;;0.00;99.90;;;;;;5079381;29;20027;-63
2023/01/21 09:12:12;;;;;;;7.70;4.57;;;0.00;99.90;;;;;;5092934;29;20484;-62
2023/01/21 09:14:46;;;;;;;5.25;2.47;;;0.00;99.90;;;;;;5062771;29;20046;-63
2023/01/21 09:17:19;;;;;;;3.47;2.70;;;0.10;99.90;;;;;;5063976;29;20039;-63
2023/01/21 09:19:50;;;;;;;5.43;2.45;;;0.10;99.90;;;;;;5071187;29;20038;-62
2023/01/21 09:22:21;;;;;;;6.03;3.10;;;0.10;99.90;;;;;;5087939;29;20035;-62
2023/01/21 09:24:53;;;;;;;5.07;3.28;;;0.10;99.90;;;;;;5087407;29;20203;-62
2023/01/21 09:27:29;;;;;;;8.18;3.90;;;0.10;99.90;;;;;;5079243;29;20032;-62
2023/01/21 09:30:03;;;;;;;7.05;3.25;;;0.10;99.90;;;;;;5047392;29;20032;-62
2023/01/21 09:32:34;;;;;;;4.78;2.40;;;0.10;99.90;;;;;;5088115;29;20407;-63
2023/01/21 09:35:06;;;;;;;4.75;3.13;;;0.20;99.90;;;;;;5087376;29;20034;-62
2023/01/21 09:37:37;;;;;;;5.95;3.47;;;0.30;99.90;;;;;;5090803;28;20232;-62
2023/01/21 09:40:15;;;;;;;5.05;2.53;;;0.30;99.90;;;;;;5043819;29;20240;-62
2023/01/21 09:42:49;;;;;;;3.50;2.22;;;0.20;99.90;;;;;;5078684;29;20038;-63
2023/01/21 09:45:21;;;;;;;6.40;3.28;;;0.20;99.90;;;;;;5094962;29;20325;-60
2023/01/21 09:48:01;;;;;;;4.43;3.03;;;0.20;99.90;;;;;;5071345;29;20059;-61
2023/01/21 09:50:39;;;;;;;4.65;3.00;;;0.30;99.90;;;;;;5090544;29;20042;-63
2023/01/21 09:53:26;;;;;;;5.05;2.63;;;0.30;99.90;;;;;;5094997;29;20038;-62
2023/01/21 09:56:01;;;;;;;2.88;2.38;;;0.30;99.90;;;;;;5111944;28;20043;-62
2023/01/21 09:58:38;;;;;;;2.63;2.17;;;0.30;99.90;;;;;;5095944;29;20035;-63
2023/01/21 10:01:23;;;;;;;4.57;2.83;;;0.30;99.90;;;;;;5110629;29;20594;-61
2023/01/21 10:04:20;;;;;;;4.63;2.40;;;0.20;99.90;;;;;;5097845;29;20046;-62
2023/01/21 10:07:13;;;;;;;4.35;2.70;;;0.30;99.90;;;;;;5066085;29;20371;-61
2023/01/21 10:10:07;;;;;;;2.70;2.38;;;0.40;99.90;;;;;;5060561;29;20044;-61
2023/01/21 10:12:54;;;;;;;3.78;2.53;;;0.40;99.90;;;;;;5086446;29;20274;-61
2023/01/21 10:15:34;;;;;;;2.90;2.03;;;0.40;99.90;;;;;;5068233;29;20050;-62
2023/01/21 10:18:11;;;;;;;7.88;2.72;;;0.30;99.90;;;;;;5080150;29;20047;-62
2023/01/21 10:20:45;;;;;;;2.90;2.08;;;0.40;99.90;;;;;;5079828;29;20031;-62
2023/01/21 10:23:30;;;;;;;4.70;2.47;;;0.40;99.90;;;;;;5089217;29;20470;-62
2023/01/21 10:26:07;;;;;;;2.75;2.40;;;0.40;99.90;;;;;;5103078;29;20036;-63
2023/01/21 10:28:58;;;;;;;4.30;2.10;;;0.30;99.90;;;;;;5077787;29;20036;-62
2023/01/21 10:31:36;;;;;;;2.50;2.25;;;0.40;99.90;;;;;;5090128;29;20806;-62
2023/01/21 10:34:13;;;;;;;3.85;2.55;;;0.40;99.90;;;;;;5091099;29;20031;-63
2023/01/21 10:37:02;;;;;;;3.70;2.17;;;0.50;99.90;;;;;;5089567;29;20040;-62
2023/01/21 10:39:46;;;;;;;3.13;2.00;;;0.60;99.90;;;;;;5067184;29;20203;-63
2023/01/21 10:42:23;;;;;;;3.47;1.95;;;0.60;99.90;;;;;;5074183;29;20169;-63
2023/01/21 10:45:27;;;;;;;3.28;2.33;;;0.70;99.90;;;;;;5092173;29;20035;-62
2023/01/21 10:48:04;;;;;;;3.88;2.25;;;0.60;99.90;;;;;;5048345;29;20045;-62
2023/01/21 10:51:02;;;;;;;5.38;2.78;;;0.60;99.90;;;;;;5051877;29;20047;-63
2023/01/21 10:53:58;;;;;;;4.05;2.17;;;0.60;99.90;;;;;;5091449;29;20042;-62
2023/01/21 10:57:13;;;;;;;6.93;2.90;;;0.50;99.90;;;;;;5057079;29;20046;-61
2023/01/21 10:59:46;;;;;;;4.13;2.20;;;0.30;99.90;;;;;;5051983;29;20699;-61
2023/01/21 11:02:34;;;;;;;4.03;2.50;;;0.40;99.90;;;;;;5069105;29;20414;-62
2023/01/21 11:05:17;;;;;;;5.15;2.60;;;0.30;99.90;;;;;;5060170;29;20048;-62
2023/01/21 11:07:49;;;;;;;5.07;2.42;;;0.30;99.90;;;;;;5070927;29;20020;-63
2023/01/21 11:10:28;;;;;;;3.95;2.53;;;0.30;99.90;;;;;;5068328;29;20054;-62
2023/01/21 11:13:02;;;;;;;2.67;1.88;;;0.40;99.90;;;;;;5070292;29;20035;-62
2023/01/21 11:15:45;;;;;;;4.93;3.22;;;0.40;99.90;;;;;;5070059;29;20350;-63
2023/01/21 11:18:36;;;;;;;6.47;3.42;;;0.30;99.90;;;;;;5036754;29;20043;-62
2023/01/21 11:21:26;;;;;;;4.50;2.13;;;0.40;99.90;;;;;;5057456;29;20040;-63
2023/01/21 11:24:06;;;;;;;3.53;2.28;;;0.30;99.90;;;;;;5069175;29;20062;-62
2023/01/21 11:26:56;;;;;;;4.38;2.25;;;0.30;99.90;;;;;;5054149;29;20032;-62
2023/01/21 11:29:39;;;;;;;4.60;2.60;;;0.20;99.90;;;;;;5069629;29;20503;-61
2023/01/21 11:32:26;;;;;;;5.37;2.97;;;0.30;99.90;;;;;;5106253;29;20027;-62
2023/01/21 11:35:06;;;;;;;4.05;2.70;;;0.30;99.90;;;;;;5103223;28;20512;-63
2023/01/21 11:37:49;;;;;;;4.20;2.47;;;0.30;99.90;;;;;;5088946;29;20537;-62
2023/01/21 11:40:24;;;;;;;3.05;2.17;;;0.30;99.90;;;;;;5083476;29;20043;-61
2023/01/21 11:43:00;;;;;;;7.40;3.42;;;0.40;99.90;;;;;;5081837;29;20054;-63
2023/01/21 11:45:35;;;;;;;6.35;2.92;;;0.40;99.90;;;;;;5089410;29;20050;-62
2023/01/21 11:48:21;;;;;;;3.65;3.03;;;0.60;99.90;;;;;;5071285;29;20035;-61
2023/01/21 11:51:06;;;;;;;3.17;2.40;;;0.50;99.90;;;;;;5105882;28;20402;-62
2023/01/21 11:53:40;;;;;;;5.70;2.80;;;0.40;99.90;;;;;;5098081;29;20031;-62
2023/01/21 11:56:13;;;;;;;5.03;3.10;;;0.40;99.90;;;;;;5079398;29;20023;-64
2023/01/21 11:58:44;;;;;;;3.97;2.20;;;0.50;99.90;;;;;;5081077;29;20027;-61
2023/01/21 12:01:20;;;;;;;5.43;2.90;;;0.50;99.90;;;;;;5088358;29;20040;-61
2023/01/21 12:03:56;;;;;;;3.33;2.65;;;0.40;99.90;;;;;;5099680;29;20039;-61
2023/01/21 12:06:30;;;;;;;4.82;2.78;;;0.30;99.90;;;;;;5094424;28;20531;-61
2023/01/21 12:09:03;;;;;;;;;;;0.30;99.90;;;;;;5101628;29;20047;-63
2023/01/21 12:11:34;;;;;;;3.97;2.20;;;0.40;99.90;;;;;;5089457;29;19931;-62
2023/01/21 12:14:28;;;;;;;4.72;2.72;;;0.40;99.90;;;;;;5072931;29;20116;-62
2023/01/21 12:17:24;;;;;;;5.03;2.87;;;0.30;99.90;;;;;;5073522;29;20042;-61
2023/01/21 12:20:17;;;;;;;3.42;2.83;;;0.40;99.90;;;;;;5087784;29;20040;-62
2023/01/21 12:23:16;;;;;;;3.25;2.60;;;0.50;99.90;;;;;;5085176;29;20038;-62
2023/01/21 12:26:13;;;;;;;2.72;1.98;;;0.50;99.90;;;;;;5087645;29;20042;-63
2023/01/21 12:29:02;;;;;;;3.30;2.08;;;0.50;99.90;;;;;;5069457;29;20043;-61
2023/01/21 12:31:42;;;;;;;5.15;2.38;;;0.50;99.90;;;;;;5081477;29;20671;-62
2023/01/21 12:34:46;;;;;;;3.90;2.75;;;0.50;99.90;;;;;;5062250;29;20044;-60
2023/01/21 12:37:29;;;;;;;3.92;3.22;;;0.50;99.90;;;;;;5088964;29;20032;-62
2023/01/21 12:40:12;;;;;;;3.90;2.58;;;0.40;99.90;;;;;;5082615;29;20035;-61
2023/01/21 12:42:54;;;;;;;5.40;3.42;;;0.40;99.90;;;;;;5086176;29;20026;-60
2023/01/21 12:45:40;;;;;;;4.32;3.25;;;0.30;99.90;;;;;;5073270;29;20039;-61
2023/01/21 12:48:30;;;;;;;5.85;3.00;;;0.30;99.90;;;;;;5073174;29;20537;-63
2023/01/21 12:51:10;;;;;;;4.68;3.00;;;0.30;99.90;;;;;;5084631;29;20031;-62
2023/01/21 12:54:03;;;;;;;3.20;2.53;;;0.40;99.90;;;;;;5088483;29;20104;-62
2023/01/21 12:56:49;;;;;;;4.05;2.80;;;0.40;99.90;;;;;;5086730;29;20388;-61
2023/01/21 12:59:29;;;;;;;4.00;2.97;;;0.40;99.90;;;;;;5068437;29;20028;-63
2023/01/21 13:02:04;;;;;;;3.88;2.85;;;0.40;99.90;;;;;;5084476;28;20625;-61
2023/01/21 13:05:04;;;;;;;;;;;0.40;99.90;;;;;;5096946;29;20043;-62
2023/01/21 13:07:52;;;;;;;3.17;1.83;;;0.40;99.90;;;;;;5079662;29;19911;-62
2023/01/21 13:10:31;;;;;;;6.90;2.75;;;0.40;99.90;;;;;;5086998;29;20369;-62
2023/01/21 13:13:10;;;;;;;3.28;2.63;;;0.40;99.90;;;;;;5066326;29;20044;-61
2023/01/21 13:15:45;;;;;;;2.45;1.75;;;0.40;99.90;;;;;;5088810;29;20213;-62
2023/01/21 13:18:27;;;;;;;4.35;2.78;;;0.30;99.90;;;;;;5088000;29;20036;-61
2023/01/21 13:21:23;;;;;;;3.40;2.60;;;0.30;99.90;;;;;;5063733;29;20147;-60
2023/01/21 13:24:03;;;;;;;3.72;2.80;;;0.30;99.90;;;;;;5070826;29;20039;-61
2023/01/21 13:26:59;;;;;;;6.18;2.22;;;0.30;99.90;;;;;;5088927;29;20546;-61
2023/01/21 13:29:37;;;;;;;3.38;2.17;;;0.30;99.90;;;;;;5088639;29;20314;-62
2023/01/21 13:32:50;;;;;;;5.68;3.60;;;0.30;99.90;;;;;;5089774;29;20040;-60
2023/01/21 13:35:32;;;;;;;5.45;2.95;;;0.30;99.90;;;;;;5072720;29;20038;-61
2023/01/21 13:38:27;;;;;;;4.28;2.70;;;0.30;99.90;;;;;;5089096;29;20046;-61
2023/01/21 13:41:24;;;;;;;5.07;2.75;;;0.30;99.90;;;;;;5086881;29;20414;-61
2023/01/21 13:44:08;;;;;;;4.45;3.05;;;0.30;99.90;;;;;;5086551;29;20037;-60
2023/01/21 13:47:05;;;;;;;5.43;3.38;;;0.30;99.90;;;;;;5069867;29;20626;-61
2023/01/21 13:50:16;;;;;;;3.15;2.38;;;0.30;99.90;;;;;;5085512;29;20032;-61
2023/01/21 13:53:28;;;;;;;5.72;3.15;;;0.30;99.90;;;;;;5102729;29;20045;-62
2023/01/21 13:56:23;;;;;;;3.65;2.58;;;0.30;99.90;;;;;;5090605;29;20034;-61